Johnson, Vermont
Current Conditions -  °F | °C
As of 10:54 AM on Saturday 25 Oct 2014 (Local Time) from KMVL Reporting Station
Clear Clear  
Wind Chill: 51°   Ceiling: Unl
Heat Index: 51°   Visibility: 10mi
Dew Point: 41°   Wind: 5mph
Humidity: 68%   Direction: 20°NNE
Pressure: 29.72"   Gusts: NA
Location:  44.64°N, 72.68°W
Report Text: KMVL 251454Z AUTO 02004KT 10SM CLR 11/05 A2972 RMK AO2 SLP071 T01060050 58016
Loading
Personal Weather Stations






























Interactive Weather Map
Tropical Storm Tracking
New forecast layout! Learn more

10-Day Weather Forecast

Advertisements
Track Severe Weather on mobile